Time;durP1;ratioP1;P1;durP2;ratioP2;P2;SDS_P1;SDS_P2;PMS_P1;PMS_P2;Temp;Humidity;BMP_temperature;BMP_pressure;BME280_temperature;BME280_humidity;BME280_pressure;Samples;Min_cycle;Max_cycle;Signal;HPM_P1;HPM_P2
2022/08/04 00:00:30;;;;;;;12.93;2.30;;;;;;;;;;10442088;28;20053;-59
2022/08/04 00:05:56;;;;;;;6.32;1.70;;;;;;;;;;10439285;28;20045;-59
2022/08/04 00:11:00;;;;;;;6.95;1.90;;;;;;;;;;10451420;28;20072;-59
2022/08/04 00:16:07;;;;;;;6.03;2.08;;;;;;;;;;10447971;28;20029;-57
2022/08/04 00:21:12;;;;;;;4.57;2.00;;;;;;;;;;10455258;28;20172;-59
2022/08/04 00:26:15;;;;;;;4.03;2.00;;;;;;;;;;10443226;28;20029;-57
2022/08/04 00:31:16;;;;;;;5.97;1.70;;;;;;;;;;10443332;28;20033;-57
2022/08/04 00:36:17;;;;;;;2.90;1.63;;;;;;;;;;10439597;28;20067;-57
2022/08/04 00:41:59;;;;;;;10.85;1.98;;;;;;;;;;10439720;28;20025;-58
2022/08/04 00:47:43;;;;;;;9.23;1.70;;;;;;;;;;10447262;28;20357;-57
2022/08/04 00:53:08;;;;;;;8.00;1.75;;;;;;;;;;10442771;28;20029;-59
2022/08/04 00:58:30;;;;;;;14.10;1.80;;;;;;;;;;10455700;28;20391;-58
2022/08/04 01:04:02;;;;;;;5.88;2.10;;;;;;;;;;10448985;28;20033;-59
2022/08/04 01:09:23;;;;;;;3.67;1.50;;;;;;;;;;10452083;28;20112;-59
2022/08/04 01:14:49;;;;;;;2.03;1.35;;;;;;;;;;10463708;28;20036;-59
2022/08/04 01:20:13;;;;;;;4.30;1.67;;;;;;;;;;10454295;28;20037;-58
2022/08/04 01:25:32;;;;;;;3.03;1.58;;;;;;;;;;10443697;28;20021;-58
2022/08/04 01:30:37;;;;;;;1.63;1.30;;;;;;;;;;10461365;28;20029;-58
2022/08/04 01:35:50;;;;;;;2.50;1.40;;;;;;;;;;10458058;28;20025;-58
2022/08/04 01:41:06;;;;;;;4.07;1.27;;;;;;;;;;10464546;28;20063;-58
2022/08/04 01:46:11;;;;;;;2.30;1.33;;;;;;;;;;10447991;28;20060;-58
2022/08/04 01:51:13;;;;;;;3.30;1.50;;;;;;;;;;10453397;28;20025;-57
2022/08/04 01:56:14;;;;;;;11.35;1.70;;;;;;;;;;10452197;28;20036;-60
2022/08/04 02:01:15;;;;;;;2.72;1.20;;;;;;;;;;10451494;28;20135;-60
2022/08/04 02:06:37;;;;;;;11.05;1.63;;;;;;;;;;10445924;28;20045;-60
2022/08/04 02:11:40;;;;;;;3.17;1.40;;;;;;;;;;10457060;28;20033;-60
2022/08/04 02:16:48;;;;;;;2.67;1.52;;;;;;;;;;10451450;28;20094;-60
2022/08/04 02:22:05;;;;;;;;;;;;;;;;;;10430312;28;20124;-59
2022/08/04 02:27:07;;;;;;;1.92;1.33;;;;;;;;;;10451693;28;20003;-60
2022/08/04 02:32:20;;;;;;;2.72;1.33;;;;;;;;;;10437797;28;20350;-59
2022/08/04 02:37:23;;;;;;;2.38;1.38;;;;;;;;;;10450107;28;20025;-59
2022/08/04 02:42:24;;;;;;;2.75;1.52;;;;;;;;;;10449322;28;20031;-60
2022/08/04 02:47:28;;;;;;;1.58;1.05;;;;;;;;;;10452253;28;20068;-59
2022/08/04 02:52:30;;;;;;;2.38;1.08;;;;;;;;;;10441769;28;20033;-59
2022/08/04 02:57:31;;;;;;;1.90;1.13;;;;;;;;;;10433493;28;20032;-59
2022/08/04 03:03:15;;;;;;;2.85;1.25;;;;;;;;;;10449442;28;20033;-60
2022/08/04 03:08:39;;;;;;;1.98;1.20;;;;;;;;;;10450748;23;20524;-51
2022/08/04 03:14:19;;;;;;;2.58;1.50;;;;;;;;;;10405881;28;20541;-51
2022/08/04 03:19:38;;;;;;;2.15;1.33;;;;;;;;;;10415793;28;20033;-50
2022/08/04 03:25:36;;;;;;;2.65;1.40;;;;;;;;;;10408115;28;20163;-56
2022/08/04 03:31:15;;;;;;;2.72;1.55;;;;;;;;;;10410717;28;20500;-55
2022/08/04 03:37:00;;;;;;;5.50;1.40;;;;;;;;;;10400300;28;20367;-56
2022/08/04 03:42:53;;;;;;;3.53;1.23;;;;;;;;;;10384882;28;20477;-56
2022/08/04 03:47:53;;;;;;;2.03;1.10;;;;;;;;;;10411598;28;20452;-56
2022/08/04 03:53:14;;;;;;;2.90;1.37;;;;;;;;;;10406183;28;20044;-58
2022/08/04 03:58:20;;;;;;;1.67;1.25;;;;;;;;;;10400523;28;20480;-58
2022/08/04 04:04:05;;;;;;;4.47;1.40;;;;;;;;;;10406901;28;20049;-58
2022/08/04 04:09:23;;;;;;;2.20;1.30;;;;;;;;;;10374837;28;20053;-58
2022/08/04 04:14:36;;;;;;;2.70;1.13;;;;;;;;;;10394307;28;20501;-56
2022/08/04 04:20:02;;;;;;;1.38;1.17;;;;;;;;;;10403716;28;20030;-57
2022/08/04 04:25:23;;;;;;;1.92;1.10;;;;;;;;;;10397123;28;20033;-57
2022/08/04 04:30:52;;;;;;;4.72;1.02;;;;;;;;;;10394136;28;20029;-58
2022/08/04 04:36:18;;;;;;;2.40;1.00;;;;;;;;;;10391180;28;20032;-58
2022/08/04 04:41:58;;;;;;;3.55;1.33;;;;;;;;;;10405681;28;20039;-58
2022/08/04 04:47:32;;;;;;;1.67;0.90;;;;;;;;;;10411710;28;20072;-58
2022/08/04 04:52:55;;;;;;;1.73;1.20;;;;;;;;;;10398998;28;20111;-52
2022/08/04 04:57:59;;;;;;;5.38;1.40;;;;;;;;;;10404093;28;20036;-56
2022/08/04 05:03:31;;;;;;;9.68;1.48;;;;;;;;;;10403448;28;20025;-58
2022/08/04 05:09:26;;;;;;;6.38;1.10;;;;;;;;;;10414949;28;20499;-58
2022/08/04 05:14:30;;;;;;;4.97;1.30;;;;;;;;;;10380033;28;20034;-57
2022/08/04 05:19:52;;;;;;;9.40;1.52;;;;;;;;;;10416369;28;20029;-56
2022/08/04 05:25:06;;;;;;;28.65;3.55;;;;;;;;;;10394249;28;20315;-59
2022/08/04 05:30:08;;;;;;;19.75;3.58;;;;;;;;;;10395077;28;20036;-59
2022/08/04 05:35:15;;;;;;;14.13;3.70;;;;;;;;;;10395155;28;20044;-55
2022/08/04 05:40:18;;;;;;;15.98;2.75;;;;;;;;;;10412677;28;20022;-59
2022/08/04 05:45:21;;;;;;;14.05;3.65;;;;;;;;;;10402397;28;20040;-56
2022/08/04 05:50:23;;;;;;;6.28;2.30;;;;;;;;;;10412604;28;20397;-61
2022/08/04 05:55:25;;;;;;;8.27;3.05;;;;;;;;;;10391217;28;20064;-46
2022/08/04 06:00:27;;;;;;;5.60;3.30;;;;;;;;;;10406883;28;20160;-60
2022/08/04 06:05:28;;;;;;;10.02;3.00;;;;;;;;;;10407700;28;20041;-59
2022/08/04 06:10:32;;;;;;;11.75;3.55;;;;;;;;;;10408729;28;20125;-60
2022/08/04 06:15:39;;;;;;;9.93;3.58;;;;;;;;;;10397472;28;20037;-57
2022/08/04 06:20:42;;;;;;;12.00;2.95;;;;;;;;;;10393680;28;20033;-60
2022/08/04 06:25:51;;;;;;;20.52;3.10;;;;;;;;;;10390141;28;20030;-46
2022/08/04 06:30:54;;;;;;;12.25;2.90;;;;;;;;;;10409264;28;20049;-58
2022/08/04 06:35:56;;;;;;;7.80;2.50;;;;;;;;;;10409601;28;20464;-52
2022/08/04 06:40:58;;;;;;;3.35;2.58;;;;;;;;;;10410509;28;20065;-61
2022/08/04 06:46:01;;;;;;;11.10;2.53;;;;;;;;;;10409163;28;20026;-61
2022/08/04 06:51:02;;;;;;;5.30;2.53;;;;;;;;;;10410356;28;20120;-61
2022/08/04 06:56:03;;;;;;;2.95;2.50;;;;;;;;;;10409155;28;20041;-61
2022/08/04 07:01:04;;;;;;;5.72;2.28;;;;;;;;;;10409105;28;20029;-61
2022/08/04 07:06:06;;;;;;;6.18;2.20;;;;;;;;;;10380619;28;20030;-61
2022/08/04 07:11:08;;;;;;;2.72;2.08;;;;;;;;;;10381565;28;20052;-61
2022/08/04 07:16:11;;;;;;;2.63;2.10;;;;;;;;;;10381614;28;20068;-61
2022/08/04 07:21:22;;;;;;;5.03;2.22;;;;;;;;;;10394045;28;20030;-45
2022/08/04 07:26:27;;;;;;;4.90;2.33;;;;;;;;;;10408522;28;20026;-45
2022/08/04 07:31:29;;;;;;;4.28;2.45;;;;;;;;;;10393785;28;20060;-45
2022/08/04 07:36:29;;;;;;;4.75;2.50;;;;;;;;;;10384054;28;20091;-46
2022/08/04 07:41:30;;;;;;;4.60;2.50;;;;;;;;;;10403927;28;20450;-45
2022/08/04 07:46:31;;;;;;;5.55;2.20;;;;;;;;;;10392752;28;20052;-45
2022/08/04 07:51:35;;;;;;;3.17;2.28;;;;;;;;;;10391441;28;20040;-46
2022/08/04 07:56:40;;;;;;;11.15;2.03;;;;;;;;;;10383606;28;20367;-45
2022/08/04 08:01:41;;;;;;;2.92;1.90;;;;;;;;;;10390209;28;20037;-46
2022/08/04 08:06:42;;;;;;;5.65;2.10;;;;;;;;;;10404183;28;20088;-46
2022/08/04 08:11:46;;;;;;;8.38;2.28;;;;;;;;;;10377169;28;20034;-45
2022/08/04 08:16:46;;;;;;;6.25;2.40;;;;;;;;;;10416468;28;20389;-46
2022/08/04 08:21:48;;;;;;;2.65;2.08;;;;;;;;;;10409404;28;20033;-46
2022/08/04 08:26:49;;;;;;;4.88;2.08;;;;;;;;;;10405171;28;20032;-46
2022/08/04 08:31:50;;;;;;;2.78;2.03;;;;;;;;;;10404758;28;20037;-46
2022/08/04 08:37:34;;;;;;;6.38;2.10;;;;;;;;;;10414323;28;20077;-47
2022/08/04 08:42:40;;;;;;;7.93;2.00;;;;;;;;;;10406972;28;20037;-47
2022/08/04 08:48:27;;;;;;;2.88;1.83;;;;;;;;;;10407626;28;20030;-45
2022/08/04 08:54:05;;;;;;;2.15;1.85;;;;;;;;;;10410870;28;20102;-47
2022/08/04 08:59:35;;;;;;;4.20;1.80;;;;;;;;;;10398560;28;20077;-45
2022/08/04 09:05:14;;;;;;;3.10;2.08;;;;;;;;;;10400277;28;20325;-45
2022/08/04 09:10:21;;;;;;;6.72;2.20;;;;;;;;;;10420163;28;20049;-46
2022/08/04 09:15:48;;;;;;;3.28;1.98;;;;;;;;;;10405064;28;20465;-45
2022/08/04 09:20:58;;;;;;;7.68;2.13;;;;;;;;;;10417565;28;20041;-45
2022/08/04 09:26:29;;;;;;;2.00;1.80;;;;;;;;;;10400184;28;20029;-46
2022/08/04 09:31:37;;;;;;;2.80;2.20;;;;;;;;;;10385324;28;20064;-46
2022/08/04 09:37:12;;;;;;;6.05;2.15;;;;;;;;;;10381954;28;20033;-51
2022/08/04 09:43:15;;;;;;;3.05;2.30;;;;;;;;;;10397348;28;20604;-46
2022/08/04 09:48:33;;;;;;;9.63;2.40;;;;;;;;;;10364483;28;20037;-45
2022/08/04 09:54:00;;;;;;;10.85;2.28;;;;;;;;;;10390923;28;20022;-45
2022/08/04 09:59:43;;;;;;;4.57;2.30;;;;;;;;;;10405645;28;20034;-46
2022/08/04 10:04:45;;;;;;;3.45;2.05;;;;;;;;;;10398036;28;20757;-47
2022/08/04 10:09:59;;;;;;;5.70;2.20;;;;;;;;;;10396738;28;20084;-46
2022/08/04 10:15:17;;;;;;;3.67;2.20;;;;;;;;;;10411695;28;20021;-46
2022/08/04 10:20:59;;;;;;;8.75;2.20;;;;;;;;;;10410460;28;20025;-45
2022/08/04 10:26:31;;;;;;;2.55;2.00;;;;;;;;;;10383543;28;20044;-45
2022/08/04 10:31:41;;;;;;;2.60;2.00;;;;;;;;;;10392734;28;20033;-46
2022/08/04 10:37:20;;;;;;;4.45;1.88;;;;;;;;;;10408805;28;20073;-46
2022/08/04 10:42:29;;;;;;;2.17;1.80;;;;;;;;;;10397027;28;20385;-45
2022/08/04 10:47:40;;;;;;;2.28;1.80;;;;;;;;;;10409514;28;20265;-47
2022/08/04 10:53:14;;;;;;;3.78;2.00;;;;;;;;;;10399311;28;20084;-45
2022/08/04 10:58:20;;;;;;;2.50;1.70;;;;;;;;;;10383227;28;20068;-47
2022/08/04 11:03:34;;;;;;;3.53;1.73;;;;;;;;;;10384305;28;20498;-45
2022/08/04 11:08:36;;;;;;;2.72;1.67;;;;;;;;;;10380266;28;20049;-46
2022/08/04 11:13:46;;;;;;;2.17;1.80;;;;;;;;;;10383134;28;20034;-45
2022/08/04 11:19:10;;;;;;;4.45;1.70;;;;;;;;;;10407186;28;20064;-45
2022/08/04 11:24:21;;;;;;;2.42;1.70;;;;;;;;;;10409491;28;20113;-45
2022/08/04 11:29:41;;;;;;;2.63;2.08;;;;;;;;;;10406800;28;20025;-46
2022/08/04 11:34:49;;;;;;;1.90;1.80;;;;;;;;;;10370470;28;20551;-45
2022/08/04 11:39:52;;;;;;;2.65;1.83;;;;;;;;;;10388673;28;20036;-45
2022/08/04 11:45:13;;;;;;;7.65;2.03;;;;;;;;;;10405544;28;20036;-45
2022/08/04 11:50:52;;;;;;;5.20;1.98;;;;;;;;;;10381562;28;20393;-45
2022/08/04 11:56:00;;;;;;;4.18;1.67;;;;;;;;;;10369279;28;20045;-46
2022/08/04 12:01:27;;;;;;;1.77;1.48;;;;;;;;;;10383610;28;20073;-45
2022/08/04 12:07:18;;;;;;;9.55;1.92;;;;;;;;;;10382227;28;20140;-45
2022/08/04 12:12:31;;;;;;;2.25;1.73;;;;;;;;;;10397516;28;20044;-45
2022/08/04 12:18:02;;;;;;;5.32;1.60;;;;;;;;;;10405857;28;20044;-46
2022/08/04 12:23:06;;;;;;;1.63;1.52;;;;;;;;;;10405618;28;20134;-47
2022/08/04 12:28:27;;;;;;;2.65;1.58;;;;;;;;;;10404965;28;20040;-46
2022/08/04 12:33:39;;;;;;;1.92;1.50;;;;;;;;;;10398481;28;20014;-46
2022/08/04 12:39:10;;;;;;;2.65;1.60;;;;;;;;;;10406584;28;20045;-47
2022/08/04 12:44:13;;;;;;;3.70;1.75;;;;;;;;;;10391961;28;20041;-48
2022/08/04 12:49:14;;;;;;;2.08;1.70;;;;;;;;;;10370632;28;20037;-50
2022/08/04 12:54:24;;;;;;;5.22;1.85;;;;;;;;;;10403100;28;20520;-51
2022/08/04 12:59:25;;;;;;;3.85;1.80;;;;;;;;;;10385321;28;20470;-56
2022/08/04 13:04:27;;;;;;;5.18;1.85;;;;;;;;;;10379877;28;20108;-57
2022/08/04 13:09:33;;;;;;;3.65;2.05;;;;;;;;;;10373186;28;20270;-47
2022/08/04 13:14:36;;;;;;;2.03;1.70;;;;;;;;;;10377293;28;20045;-50
2022/08/04 13:19:38;;;;;;;2.47;1.73;;;;;;;;;;10378645;28;20033;-48
2022/08/04 13:24:40;;;;;;;3.03;1.90;;;;;;;;;;10390528;28;20050;-51
2022/08/04 13:29:43;;;;;;;4.95;2.00;;;;;;;;;;10398660;28;20168;-47
2022/08/04 13:34:46;;;;;;;6.80;2.40;;;;;;;;;;10413618;28;20017;-46
2022/08/04 13:39:49;;;;;;;7.72;2.28;;;;;;;;;;10399919;28;20500;-57
2022/08/04 13:44:58;;;;;;;16.83;2.90;;;;;;;;;;10373424;28;20509;-54
2022/08/04 13:50:11;;;;;;;57.60;6.05;;;;;;;;;;10408955;28;20030;-45
2022/08/04 13:56:09;;;;;;;22.35;3.28;;;;;;;;;;10561713;27;20622;-48
2022/08/04 14:01:12;;;;;;;23.58;3.00;;;;;;;;;;10512589;28;20036;-52
2022/08/04 14:06:24;;;;;;;20.27;2.88;;;;;;;;;;10522579;28;20027;-53
2022/08/04 14:11:38;;;;;;;16.13;3.13;;;;;;;;;;10526169;28;20031;-55
2022/08/04 14:16:54;;;;;;;4.72;2.10;;;;;;;;;;10517251;28;20390;-54
2022/08/04 14:21:55;;;;;;;8.25;2.10;;;;;;;;;;10508096;28;20043;-52
2022/08/04 14:26:59;;;;;;;6.05;2.20;;;;;;;;;;10525161;28;20409;-56
2022/08/04 14:32:02;;;;;;;10.27;2.78;;;;;;;;;;10503674;28;20044;-54
2022/08/04 14:37:14;;;;;;;7.38;2.00;;;;;;;;;;10508090;28;20040;-55
2022/08/04 14:42:15;;;;;;;11.77;2.25;;;;;;;;;;10524566;28;20030;-55
2022/08/04 14:47:15;;;;;;;6.50;2.08;;;;;;;;;;10523341;28;20016;-54
2022/08/04 14:52:24;;;;;;;7.57;1.90;;;;;;;;;;10497241;28;20271;-53
2022/08/04 14:57:25;;;;;;;4.50;2.17;;;;;;;;;;10511934;28;20108;-52
2022/08/04 15:02:26;;;;;;;3.47;2.22;;;;;;;;;;10509453;28;20283;-54
2022/08/04 15:07:27;;;;;;;7.78;2.45;;;;;;;;;;10468377;28;20560;-55
2022/08/04 15:12:27;;;;;;;5.47;1.88;;;;;;;;;;10478971;28;20484;-53
2022/08/04 15:17:29;;;;;;;3.55;1.88;;;;;;;;;;10483151;28;20527;-54
2022/08/04 15:22:30;;;;;;;3.95;1.92;;;;;;;;;;10495269;28;20475;-54
2022/08/04 15:27:34;;;;;;;4.15;2.17;;;;;;;;;;10495169;28;20028;-54
2022/08/04 15:32:39;;;;;;;3.60;1.90;;;;;;;;;;10478107;28;20112;-54
2022/08/04 15:38:08;;;;;;;7.07;2.00;;;;;;;;;;10481336;28;20068;-57
2022/08/04 15:43:44;;;;;;;8.38;1.80;;;;;;;;;;10456474;28;20515;-51
2022/08/04 15:48:45;;;;;;;5.35;2.05;;;;;;;;;;10454042;28;20033;-52
2022/08/04 15:53:45;;;;;;;3.42;1.67;;;;;;;;;;10459452;28;20041;-56
2022/08/04 15:58:52;;;;;;;3.43;1.70;;;;;;;;;;10479983;28;20085;-56
2022/08/04 16:03:53;;;;;;;4.00;2.00;;;;;;;;;;10478125;28;20545;-55
2022/08/04 16:08:59;;;;;;;9.43;2.25;;;;;;;;;;10466982;28;20051;-55
2022/08/04 16:14:02;;;;;;;3.15;2.03;;;;;;;;;;10490179;28;20435;-53
2022/08/04 16:19:12;;;;;;;4.57;1.98;;;;;;;;;;10489296;28;20056;-52
2022/08/04 16:24:27;;;;;;;2.67;1.77;;;;;;;;;;10491678;28;20037;-55
2022/08/04 16:29:33;;;;;;;3.13;1.90;;;;;;;;;;10481499;28;20028;-54
2022/08/04 16:34:39;;;;;;;1.90;1.60;;;;;;;;;;10481569;28;20039;-56
2022/08/04 16:39:40;;;;;;;5.88;1.80;;;;;;;;;;10491673;28;20028;-54
2022/08/04 16:44:41;;;;;;;3.50;1.80;;;;;;;;;;10489471;28;20040;-53
2022/08/04 16:49:42;;;;;;;2.30;1.63;;;;;;;;;;10473881;28;20032;-53
2022/08/04 16:54:43;;;;;;;2.90;1.70;;;;;;;;;;10489874;28;20047;-54
2022/08/04 16:59:51;;;;;;;2.25;1.50;;;;;;;;;;10489205;28;20021;-53
2022/08/04 17:04:51;;;;;;;3.00;1.77;;;;;;;;;;10475520;28;20116;-50
2022/08/04 17:09:52;;;;;;;2.45;1.92;;;;;;;;;;10485038;28;20464;-54
2022/08/04 17:14:52;;;;;;;2.15;1.50;;;;;;;;;;10477829;28;20056;-49
2022/08/04 17:19:53;;;;;;;2.92;2.00;;;;;;;;;;10485365;28;20357;-55
2022/08/04 17:24:58;;;;;;;5.72;1.52;;;;;;;;;;10488990;28;20028;-52
2022/08/04 17:29:59;;;;;;;3.85;1.90;;;;;;;;;;10482405;28;20476;-57
2022/08/04 17:35:01;;;;;;;7.35;2.00;;;;;;;;;;10489141;28;20028;-54
2022/08/04 17:40:13;;;;;;;6.28;1.85;;;;;;;;;;10488877;28;20479;-51
2022/08/04 17:45:17;;;;;;;5.00;2.13;;;;;;;;;;10486610;28;20032;-55
2022/08/04 17:50:33;;;;;;;7.97;2.00;;;;;;;;;;10468644;28;20021;-57
2022/08/04 17:55:44;;;;;;;1.80;1.70;;;;;;;;;;10479556;28;20052;-51
2022/08/04 18:00:45;;;;;;;5.22;2.08;;;;;;;;;;10482118;28;20025;-54
2022/08/04 18:05:45;;;;;;;3.97;2.58;;;;;;;;;;10473263;28;20025;-57
2022/08/04 18:10:46;;;;;;;3.20;2.00;;;;;;;;;;10461839;28;20040;-52
2022/08/04 18:15:47;;;;;;;11.20;2.50;;;;;;;;;;10479743;28;20305;-57
2022/08/04 18:20:47;;;;;;;6.50;2.10;;;;;;;;;;10484700;28;20094;-58
2022/08/04 18:25:48;;;;;;;3.92;2.03;;;;;;;;;;10488847;28;20403;-56
2022/08/04 18:30:48;;;;;;;4.18;2.30;;;;;;;;;;10473500;28;20433;-57
2022/08/04 18:35:49;;;;;;;6.80;2.10;;;;;;;;;;10489396;28;20418;-57
2022/08/04 18:40:50;;;;;;;4.18;2.10;;;;;;;;;;10481348;28;20393;-57
2022/08/04 18:45:51;;;;;;;4.18;1.92;;;;;;;;;;10486026;28;20024;-56
2022/08/04 18:50:54;;;;;;;3.45;1.92;;;;;;;;;;10492806;28;20020;-56
2022/08/04 18:55:54;;;;;;;6.30;2.47;;;;;;;;;;10494611;28;20392;-56
2022/08/04 19:00:55;;;;;;;3.00;1.80;;;;;;;;;;10480862;28;20032;-57
2022/08/04 19:05:56;;;;;;;4.95;2.00;;;;;;;;;;10486019;28;20075;-55
2022/08/04 19:10:59;;;;;;;5.90;2.03;;;;;;;;;;10483827;28;20129;-55
2022/08/04 19:15:59;;;;;;;7.53;2.38;;;;;;;;;;10494157;28;20562;-57
2022/08/04 19:21:00;;;;;;;7.82;2.58;;;;;;;;;;10496158;28;20035;-54
2022/08/04 19:26:01;;;;;;;3.20;2.00;;;;;;;;;;10493775;28;20368;-53
2022/08/04 19:31:05;;;;;;;5.18;2.30;;;;;;;;;;10488064;28;20532;-55
2022/08/04 19:36:06;;;;;;;5.97;2.05;;;;;;;;;;10491787;28;20035;-56
2022/08/04 19:41:06;;;;;;;7.65;2.05;;;;;;;;;;10493777;28;20035;-55
2022/08/04 19:46:07;;;;;;;11.00;2.80;;;;;;;;;;10492660;28;20028;-53
2022/08/04 19:51:08;;;;;;;9.00;3.00;;;;;;;;;;10483100;28;20021;-56
2022/08/04 19:56:08;;;;;;;11.77;2.80;;;;;;;;;;10493834;28;20036;-56
2022/08/04 20:01:12;;;;;;;10.40;2.97;;;;;;;;;;10502556;28;20027;-56
2022/08/04 20:06:12;;;;;;;9.77;2.72;;;;;;;;;;10480036;28;20060;-55
2022/08/04 20:11:13;;;;;;;7.50;2.35;;;;;;;;;;10487828;28;20045;-55
2022/08/04 20:16:15;;;;;;;12.95;2.72;;;;;;;;;;10485197;28;20021;-57
2022/08/04 20:21:16;;;;;;;6.57;2.40;;;;;;;;;;10489657;28;20024;-54
2022/08/04 20:26:17;;;;;;;8.48;2.42;;;;;;;;;;10481864;28;20029;-55
2022/08/04 20:31:17;;;;;;;5.93;2.38;;;;;;;;;;10467741;28;20023;-55
2022/08/04 20:36:18;;;;;;;12.65;2.30;;;;;;;;;;10465179;28;20028;-52
2022/08/04 20:41:20;;;;;;;6.93;2.38;;;;;;;;;;10453769;28;20116;-55
2022/08/04 20:46:21;;;;;;;3.15;2.10;;;;;;;;;;10471411;28;20372;-54
2022/08/04 20:51:24;;;;;;;3.83;2.10;;;;;;;;;;10489115;28;20479;-56
2022/08/04 20:56:25;;;;;;;5.57;2.30;;;;;;;;;;10492483;28;20033;-55
2022/08/04 21:01:27;;;;;;;5.55;1.95;;;;;;;;;;10483888;28;20032;-54
2022/08/04 21:06:27;;;;;;;3.70;1.98;;;;;;;;;;10455758;28;20452;-55
2022/08/04 21:11:28;;;;;;;10.63;2.72;;;;;;;;;;10473304;28;20036;-53
2022/08/04 21:16:29;;;;;;;6.82;2.47;;;;;;;;;;10490061;28;20028;-56
2022/08/04 21:21:29;;;;;;;6.32;2.40;;;;;;;;;;10490594;28;20020;-54
2022/08/04 21:26:30;;;;;;;9.38;2.30;;;;;;;;;;10479781;28;20077;-51
2022/08/04 21:31:30;;;;;;;7.25;2.58;;;;;;;;;;10481131;28;20028;-56
2022/08/04 21:36:31;;;;;;;14.98;2.90;;;;;;;;;;10474476;28;20313;-52
2022/08/04 21:41:32;;;;;;;10.18;2.40;;;;;;;;;;10486363;28;20028;-56
2022/08/04 21:46:33;;;;;;;8.60;2.60;;;;;;;;;;10484618;28;20020;-56
2022/08/04 21:51:35;;;;;;;8.30;2.53;;;;;;;;;;10480645;28;20059;-56
2022/08/04 21:56:36;;;;;;;15.43;2.92;;;;;;;;;;10490074;28;20039;-55
2022/08/04 22:01:37;;;;;;;8.13;2.90;;;;;;;;;;10488531;28;20443;-57
2022/08/04 22:06:37;;;;;;;6.95;2.75;;;;;;;;;;10465081;28;20102;-53
2022/08/04 22:11:38;;;;;;;5.53;2.20;;;;;;;;;;10489843;28;20024;-57
2022/08/04 22:16:39;;;;;;;8.90;2.47;;;;;;;;;;10489884;28;20471;-57
2022/08/04 22:21:39;;;;;;;5.07;2.13;;;;;;;;;;10480195;28;20054;-58
2022/08/04 22:26:40;;;;;;;4.78;2.03;;;;;;;;;;10497768;28;20028;-57
2022/08/04 22:31:41;;;;;;;13.85;2.17;;;;;;;;;;10485637;28;20063;-57
2022/08/04 22:36:42;;;;;;;5.90;2.05;;;;;;;;;;10494307;28;20103;-57
2022/08/04 22:41:43;;;;;;;8.98;1.88;;;;;;;;;;10479094;28;20028;-54
2022/08/04 22:46:43;;;;;;;3.60;2.10;;;;;;;;;;10480175;28;20021;-57
2022/08/04 22:51:44;;;;;;;4.50;1.70;;;;;;;;;;10490782;28;20044;-56
2022/08/04 22:56:44;;;;;;;4.68;2.13;;;;;;;;;;10495396;28;20024;-56
2022/08/04 23:01:45;;;;;;;3.22;2.10;;;;;;;;;;10486563;28;20086;-54
2022/08/04 23:06:46;;;;;;;4.15;2.05;;;;;;;;;;10471433;28;20029;-57
2022/08/04 23:11:46;;;;;;;3.15;1.70;;;;;;;;;;10470245;28;20040;-57
2022/08/04 23:16:47;;;;;;;5.43;1.70;;;;;;;;;;10488621;28;20025;-56
2022/08/04 23:21:47;;;;;;;2.30;1.70;;;;;;;;;;10478043;28;20028;-57
2022/08/04 23:26:48;;;;;;;7.90;2.13;;;;;;;;;;10486066;28;20071;-55
2022/08/04 23:31:48;;;;;;;2.22;1.50;;;;;;;;;;10473259;28;20029;-57
2022/08/04 23:36:49;;;;;;;3.65;1.98;;;;;;;;;;10481615;28;20028;-57
2022/08/04 23:41:50;;;;;;;5.60;1.83;;;;;;;;;;10473851;28;20423;-57
2022/08/04 23:46:56;;;;;;;2.85;1.70;;;;;;;;;;10494488;28;20114;-58
2022/08/04 23:51:56;;;;;;;11.82;1.80;;;;;;;;;;10482946;28;20045;-57
2022/08/04 23:56:57;;;;;;;3.28;1.75;;;;;;;;;;10492553;28;20492;-57
